createdAt,value
2019-04-20T00:00:30.543Z,47.16
2019-04-20T00:02:57.149Z,47.32
2019-04-20T00:05:25.169Z,46.68
2019-04-20T00:07:52.315Z,46.64
2019-04-20T00:10:21.576Z,46.86
2019-04-20T00:13:02.309Z,46.66
2019-04-20T00:15:17.625Z,46.71
2019-04-20T00:17:49.643Z,46.77
2019-04-20T00:20:20.759Z,46.43
2019-04-20T00:23:00.183Z,45.84
2019-04-20T00:25:47.482Z,46.89
2019-04-20T00:28:25.430Z,48.15
2019-04-20T00:30:54.465Z,48.98
2019-04-20T00:33:14.837Z,48.79
2019-04-20T00:35:31.882Z,49.42
2019-04-20T00:37:59.138Z,49.55
2019-04-20T00:40:26.717Z,50.12
2019-04-20T00:42:57.113Z,49.53
2019-04-20T00:45:27.490Z,49.35
2019-04-20T00:47:59.298Z,49.28
2019-04-20T00:50:36.696Z,49.04
2019-04-20T00:53:02.161Z,48.94
2019-04-20T00:55:17.156Z,49.18
2019-04-20T00:57:51.392Z,48.83
2019-04-20T01:00:31.327Z,50.13
2019-04-20T01:02:55.337Z,50.25
2019-04-20T01:05:53.837Z,49.78
2019-04-20T01:08:10.071Z,49.75
2019-04-20T01:10:44.813Z,50.83
2019-04-20T01:13:13.751Z,50.66
2019-04-20T01:15:42.909Z,50.22
2019-04-20T01:18:04.948Z,50.87
2019-04-20T01:20:31.787Z,51.02
2019-04-20T01:23:06.346Z,51.40
2019-04-20T01:25:33.833Z,50.64
2019-04-20T01:28:14.766Z,50.24
2019-04-20T01:30:36.219Z,50.05
2019-04-20T01:33:12.667Z,50.13
2019-04-20T01:35:47.913Z,49.85
2019-04-20T01:38:16.908Z,50.13
2019-04-20T01:40:27.486Z,49.98
2019-04-20T01:42:55.316Z,50.78
2019-04-20T01:45:29.270Z,50.68
2019-04-20T01:47:54.454Z,50.88
2019-04-20T01:50:24.754Z,50.66
2019-04-20T01:52:58.032Z,50.21
2019-04-20T01:55:42.515Z,50.90
2019-04-20T01:58:37.638Z,51.81
2019-04-20T02:00:44.943Z,51.63
2019-04-20T02:03:36.868Z,51.10
2019-04-20T02:06:09.702Z,51.51
2019-04-20T02:08:34.175Z,51.09
2019-04-20T02:11:04.339Z,51.62
2019-04-20T02:13:36.117Z,51.94
2019-04-20T02:16:04.894Z,51.56
2019-04-20T02:18:40.035Z,50.77
2019-04-20T02:21:18.304Z,50.87
2019-04-20T02:23:35.773Z,50.67
2019-04-20T02:25:54.634Z,51.42
2019-04-20T02:28:37.240Z,51.83
2019-04-20T02:32:11.861Z,52.31
2019-04-20T02:33:57.360Z,52.45
2019-04-20T02:36:48.777Z,52.05
2019-04-20T02:41:36.077Z,51.74
2019-04-20T02:46:31.582Z,52.27
2019-04-20T02:49:04.302Z,52.41
2019-04-20T02:54:11.470Z,53.13
2019-04-20T02:59:14.761Z,52.52
2019-04-20T03:01:26.755Z,53.43
2019-04-20T03:03:42.770Z,53.26
2019-04-20T03:06:17.297Z,53.70
2019-04-20T03:08:56.324Z,53.63
2019-04-20T03:11:23.086Z,52.71
2019-04-20T03:13:50.618Z,52.97
2019-04-20T03:16:16.753Z,53.23
2019-04-20T03:18:44.538Z,53.33
2019-04-20T03:21:21.075Z,53.78
2019-04-20T03:23:54.224Z,54.41
2019-04-20T03:26:29.333Z,53.90
2019-04-20T03:29:10.141Z,53.51
2019-04-20T03:32:15.471Z,53.25
2019-04-20T03:36:53.138Z,52.94
2019-04-20T03:39:13.609Z,53.70
2019-04-20T03:41:28.233Z,54.35
2019-04-20T03:43:54.147Z,53.84
2019-04-20T03:46:30.156Z,53.71
2019-04-20T03:49:04.661Z,53.60
2019-04-20T03:51:40.154Z,54.75
2019-04-20T03:54:05.170Z,55.13
2019-04-20T03:56:49.642Z,55.19
2019-04-20T03:59:43.684Z,55.15
2019-04-20T04:02:45.862Z,55.47
2019-04-20T04:05:07.337Z,55.85
2019-04-20T04:07:24.946Z,55.18
2019-04-20T04:09:59.792Z,54.21
2019-04-20T04:13:07.328Z,53.60
2019-04-20T04:15:37.076Z,53.03
2019-04-20T04:18:13.513Z,53.07
2019-04-20T04:20:43.626Z,53.37
2019-04-20T04:23:24.932Z,53.26
2019-04-20T04:25:55.684Z,53.05
2019-04-20T04:28:18.566Z,52.82
2019-04-20T04:30:49.620Z,52.64
2019-04-20T04:35:48.298Z,53.51
2019-04-20T04:38:19.451Z,53.68
2019-04-20T04:40:57.904Z,54.17
2019-04-20T04:43:22.114Z,54.32
2019-04-20T04:45:30.023Z,54.28
2019-04-20T04:47:56.138Z,54.57
2019-04-20T04:50:26.624Z,54.42
2019-04-20T04:53:04.509Z,54.03
2019-04-20T04:55:32.758Z,54.10
2019-04-20T04:57:53.761Z,53.66
2019-04-20T05:00:26.228Z,53.72
2019-04-20T05:02:57.760Z,53.91
2019-04-20T05:05:35.906Z,54.63
2019-04-20T05:07:59.428Z,55.86
2019-04-20T05:10:19.489Z,55.75
2019-04-20T05:12:48.203Z,55.42
2019-04-20T05:15:29.582Z,55.64
2019-04-20T05:18:06.211Z,55.57
2019-04-20T05:20:38.680Z,55.18
2019-04-20T05:23:12.667Z,54.25
2019-04-20T05:25:50.932Z,54.37
2019-04-20T05:28:20.467Z,54.63
2019-04-20T05:30:45.730Z,54.58
2019-04-20T05:33:16.803Z,55.08
2019-04-20T05:36:01.432Z,55.02
2019-04-20T05:38:33.615Z,54.38
2019-04-20T05:40:59.471Z,53.71
2019-04-20T05:43:36.293Z,53.82
2019-04-20T05:46:14.712Z,54.65
2019-04-20T05:48:45.738Z,54.19
2019-04-20T05:51:01.776Z,53.87
2019-04-20T05:53:38.773Z,53.36
2019-04-20T05:56:02.923Z,53.64
2019-04-20T05:58:32.694Z,53.30
2019-04-20T06:01:08.443Z,52.73
2019-04-20T06:03:32.246Z,52.64
2019-04-20T06:06:10.710Z,51.59
2019-04-20T06:08:40.258Z,51.45
2019-04-20T06:11:02.043Z,51.42
2019-04-20T06:13:22.871Z,51.13
2019-04-20T06:16:06.031Z,51.12
2019-04-20T06:18:33.602Z,51.03
2019-04-20T06:21:17.384Z,52.48
2019-04-20T06:23:56.417Z,50.72
2019-04-20T06:26:43.499Z,50.40
2019-04-20T06:28:57.129Z,50.09
2019-04-20T06:31:30.121Z,50.01
2019-04-20T06:36:53.445Z,49.64
2019-04-20T06:42:08.111Z,49.17
2019-04-20T06:44:29.185Z,49.31
2019-04-20T06:46:59.086Z,49.24
2019-04-20T06:51:58.917Z,48.39
2019-04-20T06:54:42.198Z,48.24
2019-04-20T06:57:10.161Z,47.76
2019-04-20T06:59:56.500Z,47.33
2019-04-20T07:02:17.240Z,47.38
2019-04-20T07:07:08.538Z,47.29
2019-04-20T07:09:47.340Z,47.25
2019-04-20T07:12:02.886Z,47.02
2019-04-20T07:14:28.863Z,46.91
2019-04-20T07:17:24.879Z,46.50
2019-04-20T07:19:50.050Z,46.08
2019-04-20T07:22:33.618Z,45.63
2019-04-20T07:25:14.395Z,45.36
2019-04-20T07:27:29.464Z,45.10
2019-04-20T07:30:06.332Z,44.90
2019-04-20T07:32:19.227Z,44.68
2019-04-20T07:34:55.590Z,44.34
2019-04-20T07:40:02.692Z,43.35
2019-04-20T07:42:28.704Z,42.90
2019-04-20T07:45:01.254Z,42.33
2019-04-20T07:47:32.493Z,41.75
2019-04-20T07:49:49.832Z,41.23
2019-04-20T07:52:01.837Z,40.81
2019-04-20T07:55:12.153Z,40.45
2019-04-20T07:57:16.966Z,40.08
2019-04-20T07:59:37.426Z,39.66
2019-04-20T08:02:25.225Z,39.15
2019-04-20T08:04:43.494Z,38.73
2019-04-20T08:07:02.098Z,38.38
2019-04-20T08:09:36.436Z,38.03
2019-04-20T08:12:38.248Z,37.70
2019-04-20T08:14:57.579Z,37.27
2019-04-20T08:17:30.907Z,36.84
2019-04-20T08:19:50.986Z,36.50
2019-04-20T08:22:26.596Z,36.23
2019-04-20T08:24:46.888Z,35.90
2019-04-20T08:27:04.742Z,35.52
2019-04-20T08:29:45.172Z,34.97
2019-04-20T08:32:23.101Z,34.48
2019-04-20T08:34:53.783Z,34.13
2019-04-20T08:37:17.344Z,33.77
2019-04-20T08:39:57.407Z,33.37
2019-04-20T08:42:16.447Z,33.08
2019-04-20T08:47:29.178Z,32.32
2019-04-20T08:53:03.868Z,31.80
2019-04-20T08:55:09.870Z,31.59
2019-04-20T08:57:22.749Z,31.27
2019-04-20T08:59:51.406Z,30.81
2019-04-20T09:02:20.365Z,30.61
2019-04-20T09:04:55.221Z,30.42
2019-04-20T09:07:22.572Z,30.19
2019-04-20T09:10:11.611Z,30.00
2019-04-20T09:12:33.260Z,29.75
2019-04-20T09:14:44.519Z,29.43
2019-04-20T09:17:24.191Z,29.14
2019-04-20T09:19:54.820Z,28.88
2019-04-20T09:22:38.814Z,28.76
2019-04-20T09:25:27.892Z,28.58
2019-04-20T09:27:38.583Z,28.46
2019-04-20T09:30:17.277Z,28.26
2019-04-20T09:32:59.531Z,28.12
2019-04-20T09:35:28.026Z,27.86
2019-04-20T09:38:03.264Z,27.83
2019-04-20T09:40:30.760Z,27.61
2019-04-20T09:42:50.257Z,27.47
2019-04-20T09:45:27.780Z,27.50
2019-04-20T09:47:53.227Z,27.57
2019-04-20T09:50:31.976Z,27.53
2019-04-20T09:53:02.522Z,27.29
2019-04-20T09:55:29.517Z,27.07
2019-04-20T09:58:01.317Z,27.23
2019-04-20T10:00:35.895Z,27.29
2019-04-20T10:02:46.397Z,27.01
2019-04-20T10:05:15.663Z,26.80
2019-04-20T10:07:43.932Z,26.67
2019-04-20T10:10:21.515Z,26.66
2019-04-20T10:12:41.851Z,26.61
2019-04-20T10:15:15.690Z,26.67
2019-04-20T10:17:38.628Z,26.48
2019-04-20T10:20:12.722Z,26.20
2019-04-20T10:22:36.175Z,25.84
2019-04-20T10:25:04.667Z,25.89
2019-04-20T10:27:32.715Z,25.74
2019-04-20T10:30:03.777Z,25.57
2019-04-20T10:32:36.292Z,25.33
2019-04-20T10:34:58.849Z,25.07
2019-04-20T10:37:27.809Z,24.89
2019-04-20T10:39:54.610Z,24.76
2019-04-20T10:42:21.602Z,24.53
2019-04-20T10:44:48.379Z,24.21
2019-04-20T10:47:16.812Z,24.17
2019-04-20T10:49:45.042Z,24.08
2019-04-20T10:52:13.728Z,24.09
2019-04-20T10:54:40.696Z,23.58
2019-04-20T10:57:07.891Z,23.72
2019-04-20T10:59:34.958Z,23.42
2019-04-20T11:02:02.042Z,23.07
2019-04-20T11:04:28.791Z,22.82
2019-04-20T11:06:56.621Z,22.58
2019-04-20T11:09:24.831Z,22.32
2019-04-20T11:11:52.395Z,22.20
2019-04-20T11:14:26.309Z,22.22
2019-04-20T11:16:48.526Z,22.04
2019-04-20T11:19:15.991Z,21.53
2019-04-20T11:21:44.113Z,21.28
2019-04-20T11:24:12.260Z,20.79
2019-04-20T11:26:41.625Z,20.19
2019-04-20T11:29:08.465Z,19.86
2019-04-20T11:31:41.672Z,19.29
2019-04-20T11:34:04.449Z,18.71
2019-04-20T11:36:32.878Z,18.54
2019-04-20T11:39:00.731Z,18.13
2019-04-20T11:41:32.710Z,17.80
2019-04-20T11:43:59.789Z,17.58
2019-04-20T11:46:26.977Z,17.26
2019-04-20T11:48:55.211Z,17.00
2019-04-20T11:51:23.357Z,16.42
2019-04-20T11:53:50.606Z,16.27
2019-04-20T11:56:24.312Z,16.14
2019-04-20T11:58:48.990Z,16.01
2019-04-20T12:01:23.663Z,15.78
2019-04-20T12:04:00.348Z,15.67
2019-04-20T12:06:18.981Z,15.60
2019-04-20T12:08:47.082Z,15.37
2019-04-20T12:11:27.840Z,14.94
2019-04-20T12:13:44.766Z,14.55
2019-04-20T12:16:12.084Z,14.15
2019-04-20T12:18:39.023Z,13.86
2019-04-20T12:21:05.949Z,13.80
2019-04-20T12:23:34.002Z,13.73
2019-04-20T12:26:01.986Z,13.76
2019-04-20T12:28:29.612Z,13.64
2019-04-20T12:31:07.777Z,13.25
2019-04-20T12:33:26.722Z,13.33
2019-04-20T12:35:54.249Z,13.09
2019-04-20T12:38:21.656Z,12.92
2019-04-20T12:40:48.573Z,12.84
2019-04-20T12:43:17.211Z,12.66
2019-04-20T12:45:44.357Z,12.65
2019-04-20T12:48:11.431Z,12.51
2019-04-20T12:50:41.552Z,12.51
2019-04-20T12:53:08.653Z,12.27
2019-04-20T12:55:36.758Z,12.29
2019-04-20T12:58:04.914Z,12.08
2019-04-20T13:00:45.998Z,11.88
2019-04-20T13:03:13.771Z,11.52
2019-04-20T13:05:41.498Z,11.16
2019-04-20T13:08:13.831Z,10.79
2019-04-20T13:10:40.255Z,10.93
2019-04-20T13:13:10.199Z,10.76
2019-04-20T13:15:44.468Z,10.42
2019-04-20T13:18:19.532Z,10.42
2019-04-20T13:20:47.819Z,10.22
2019-04-20T13:23:15.130Z,10.14
2019-04-20T13:25:43.065Z,10.18
2019-04-20T13:28:10.685Z,10.12
2019-04-20T13:30:37.711Z,10.07
2019-04-20T13:33:05.953Z,10.01
2019-04-20T13:35:34.305Z,10.09
2019-04-20T13:38:02.379Z,10.11
2019-04-20T13:40:31.039Z,10.12
2019-04-20T13:42:59.485Z,10.07
2019-04-20T13:45:26.730Z,10.08
2019-04-20T13:47:55.101Z,10.31
2019-04-20T13:50:22.434Z,10.23
2019-04-20T13:52:49.774Z,10.30
2019-04-20T13:55:19.331Z,10.07
2019-04-20T13:57:47.189Z,9.95
2019-04-20T14:00:22.042Z,10.19
2019-04-20T14:03:02.789Z,10.20
2019-04-20T14:05:33.069Z,10.29
2019-04-20T14:08:09.389Z,10.38
2019-04-20T14:10:37.682Z,10.05
2019-04-20T14:13:11.271Z,10.27
2019-04-20T14:15:35.283Z,10.21
2019-04-20T14:18:03.198Z,10.23
2019-04-20T14:20:30.347Z,10.41
2019-04-20T14:22:58.843Z,10.54
2019-04-20T14:25:27.043Z,10.38
2019-04-20T14:27:55.283Z,10.46
2019-04-20T14:30:22.670Z,10.36
2019-04-20T14:32:50.495Z,10.46
2019-04-20T14:35:18.717Z,10.58
2019-04-20T14:37:47.943Z,10.56
2019-04-20T14:40:16.523Z,10.86
2019-04-20T14:42:48.570Z,10.78
2019-04-20T14:45:14.761Z,10.75
2019-04-20T14:47:41.581Z,10.86
2019-04-20T14:50:09.759Z,10.91
2019-04-20T14:52:37.691Z,10.92
2019-04-20T14:55:08.664Z,10.93
2019-04-20T14:57:35.634Z,10.97
2019-04-20T15:00:09.750Z,11.05
2019-04-20T15:02:36.630Z,10.98
2019-04-20T15:05:05.448Z,11.00
2019-04-20T15:07:33.038Z,10.70
2019-04-20T15:10:00.828Z,10.61
2019-04-20T15:12:38.982Z,10.77
2019-04-20T15:14:56.781Z,11.14
2019-04-20T15:17:29.812Z,11.37
2019-04-20T15:19:59.221Z,11.53
2019-04-20T15:22:36.950Z,11.90
2019-04-20T15:25:09.596Z,12.13
2019-04-20T15:27:37.399Z,12.14
2019-04-20T15:30:08.602Z,11.97
2019-04-20T15:32:36.855Z,11.90
2019-04-20T15:35:07.093Z,12.06
2019-04-20T15:37:35.155Z,12.16
2019-04-20T15:40:06.457Z,12.15
2019-04-20T15:42:36.255Z,12.05
2019-04-20T15:45:05.298Z,12.13
2019-04-20T15:47:32.414Z,12.10
2019-04-20T15:49:59.926Z,12.20
2019-04-20T15:52:33.630Z,12.26
2019-04-20T15:54:56.024Z,12.33
2019-04-20T15:57:25.690Z,12.30
2019-04-20T15:59:53.604Z,12.26
2019-04-20T16:02:35.714Z,12.29
2019-04-20T16:05:08.248Z,12.29
2019-04-20T16:07:39.144Z,12.34
2019-04-20T16:10:07.459Z,12.43
2019-04-20T16:12:35.164Z,12.43
2019-04-20T16:15:04.657Z,12.52
2019-04-20T16:17:38.463Z,12.28
2019-04-20T16:20:07.947Z,12.28
2019-04-20T16:22:30.928Z,12.32
2019-04-20T16:25:01.214Z,12.34
2019-04-20T16:27:29.573Z,12.52
2019-04-20T16:29:57.769Z,12.67
2019-04-20T16:32:24.808Z,12.69
2019-04-20T16:34:52.717Z,12.91
2019-04-20T16:37:20.136Z,13.11
2019-04-20T16:39:48.342Z,13.33
2019-04-20T16:42:16.180Z,13.52
2019-04-20T16:44:43.576Z,13.64
2019-04-20T16:47:10.684Z,13.65
2019-04-20T16:49:39.382Z,13.80
2019-04-20T16:52:07.307Z,14.02
2019-04-20T16:54:35.623Z,14.28
2019-04-20T16:57:02.990Z,14.52
2019-04-20T16:59:33.572Z,14.54
2019-04-20T17:01:58.428Z,14.59
2019-04-20T17:04:26.936Z,14.64
2019-04-20T17:07:14.199Z,14.63
2019-04-20T17:09:42.060Z,14.75
2019-04-20T17:12:10.013Z,14.94
2019-04-20T17:14:37.887Z,15.11
2019-04-20T17:17:05.181Z,15.24
2019-04-20T17:19:33.488Z,15.44
2019-04-20T17:22:01.245Z,15.56
2019-04-20T17:24:29.370Z,15.72
2019-04-20T17:27:15.181Z,15.80
2019-04-20T17:29:52.807Z,15.86
2019-04-20T17:32:21.581Z,15.94
2019-04-20T17:35:04.663Z,16.13
2019-04-20T17:37:18.446Z,16.23
2019-04-20T17:40:06.369Z,16.38
2019-04-20T17:42:32.767Z,16.56
2019-04-20T17:44:52.953Z,16.57
2019-04-20T17:47:34.755Z,16.67
2019-04-20T17:49:59.649Z,16.56
2019-04-20T17:52:35.920Z,16.54
2019-04-20T17:54:47.310Z,16.63
2019-04-20T17:57:15.265Z,16.80
2019-04-20T17:59:52.155Z,17.08
2019-04-20T18:02:33.380Z,17.29
2019-04-20T18:05:20.106Z,17.46
2019-04-20T18:07:58.768Z,17.61
2019-04-20T18:10:16.361Z,17.69
2019-04-20T18:12:26.842Z,17.87
2019-04-20T18:15:06.485Z,18.07
2019-04-20T18:17:29.371Z,18.33
2019-04-20T18:19:52.175Z,18.69
2019-04-20T18:22:19.555Z,19.03
2019-04-20T18:25:09.143Z,19.60
2019-04-20T18:27:37.116Z,21.08
2019-04-20T18:30:04.045Z,22.43
2019-04-20T18:32:23.238Z,23.60
2019-04-20T18:35:02.631Z,24.33
2019-04-20T18:37:28.841Z,23.99
2019-04-20T18:40:05.067Z,23.46
2019-04-20T18:42:32.379Z,23.20
2019-04-20T18:45:12.569Z,23.14
2019-04-20T18:47:45.300Z,23.62
2019-04-20T18:50:07.702Z,23.83
2019-04-20T18:52:27.535Z,24.06
2019-04-20T18:54:57.585Z,24.69
2019-04-20T18:57:29.157Z,24.88
2019-04-20T18:59:56.704Z,25.21
2019-04-20T19:02:32.774Z,25.71
2019-04-20T19:04:58.610Z,26.10
2019-04-20T19:07:25.849Z,26.42
2019-04-20T19:10:08.480Z,26.42
2019-04-20T19:12:42.492Z,26.38
2019-04-20T19:15:20.658Z,26.36
2019-04-20T19:17:45.114Z,26.42
2019-04-20T19:20:09.257Z,26.47
2019-04-20T19:22:37.297Z,26.22
2019-04-20T19:25:05.713Z,26.23
2019-04-20T19:27:39.943Z,26.65
2019-04-20T19:30:14.929Z,26.73
2019-04-20T19:32:45.212Z,26.84
2019-04-20T19:35:06.821Z,26.79
2019-04-20T19:37:33.103Z,27.04
2019-04-20T19:40:08.140Z,27.32
2019-04-20T19:42:39.666Z,27.43
2019-04-20T19:45:18.747Z,27.25
2019-04-20T19:47:47.153Z,27.55
2019-04-20T19:50:22.007Z,27.63
2019-04-20T19:52:51.751Z,27.58
2019-04-20T19:55:10.802Z,27.93
2019-04-20T19:57:38.879Z,28.45
2019-04-20T19:59:54.143Z,28.74
2019-04-20T20:02:18.816Z,29.06
2019-04-20T20:04:52.394Z,28.93
2019-04-20T20:07:24.255Z,29.57
2019-04-20T20:09:53.054Z,29.35
2019-04-20T20:12:16.130Z,29.61
2019-04-20T20:14:46.074Z,30.03
2019-04-20T20:17:32.937Z,30.65
2019-04-20T20:20:13.009Z,31.02
2019-04-20T20:22:22.909Z,30.92
2019-04-20T20:24:38.902Z,30.59
2019-04-20T20:27:17.364Z,31.12
2019-04-20T20:29:41.402Z,31.52
2019-04-20T20:32:17.704Z,31.41
2019-04-20T20:34:40.501Z,31.15
2019-04-20T20:37:06.298Z,30.82
2019-04-20T20:39:36.641Z,31.07
2019-04-20T20:42:15.153Z,31.59
2019-04-20T20:44:42.590Z,31.70
2019-04-20T20:47:12.942Z,31.82
2019-04-20T20:49:48.777Z,32.53
2019-04-20T20:52:19.796Z,32.76
2019-04-20T20:54:41.371Z,33.25
2019-04-20T20:57:03.736Z,33.91
2019-04-20T20:59:39.567Z,33.94
2019-04-20T21:02:06.734Z,33.69
2019-04-20T21:04:30.017Z,32.89
2019-04-20T21:06:58.089Z,33.19
2019-04-20T21:09:25.666Z,33.12
2019-04-20T21:12:01.796Z,33.67
2019-04-20T21:14:27.957Z,34.24
2019-04-20T21:17:01.770Z,34.58
2019-04-20T21:19:41.881Z,34.68
2019-04-20T21:21:59.992Z,34.69
2019-04-20T21:24:22.113Z,34.00
2019-04-20T21:26:49.997Z,34.36
2019-04-20T21:29:21.363Z,33.99
2019-04-20T21:31:54.468Z,34.03
2019-04-20T21:34:19.511Z,34.67
2019-04-20T21:36:43.253Z,35.03
2019-04-20T21:39:23.528Z,34.79
2019-04-20T21:41:40.621Z,35.23
2019-04-20T21:44:18.195Z,35.65
2019-04-20T21:46:43.778Z,35.55
2019-04-20T21:49:21.836Z,35.17
2019-04-20T21:51:44.689Z,36.22
2019-04-20T21:54:03.766Z,36.80
2019-04-20T21:56:31.928Z,36.67
2019-04-20T21:59:03.793Z,36.71
2019-04-20T22:01:34.589Z,36.36
2019-04-20T22:03:58.542Z,36.46
2019-04-20T22:06:26.632Z,36.96
2019-04-20T22:09:00.408Z,37.56
2019-04-20T22:11:25.943Z,37.24
2019-04-20T22:13:54.598Z,37.58
2019-04-20T22:16:22.693Z,37.70
2019-04-20T22:18:59.176Z,37.82
2019-04-20T22:21:26.524Z,37.58
2019-04-20T22:24:05.406Z,38.27
2019-04-20T22:26:29.654Z,38.61
2019-04-20T22:28:45.614Z,38.99
2019-04-20T22:31:14.021Z,39.06
2019-04-20T22:33:44.601Z,39.15
2019-04-20T22:36:12.782Z,38.52
2019-04-20T22:39:01.298Z,38.72
2019-04-20T22:41:27.943Z,39.14
2019-04-20T22:43:54.939Z,39.75
2019-04-20T22:46:24.773Z,40.02
2019-04-20T22:48:59.489Z,40.16
2019-04-20T22:51:37.097Z,39.50
2019-04-20T22:53:56.359Z,39.45
2019-04-20T22:56:35.673Z,39.18
2019-04-20T22:58:57.539Z,39.17
2019-04-20T23:01:24.950Z,38.93
2019-04-20T23:03:44.828Z,38.90
2019-04-20T23:06:12.592Z,39.13
2019-04-20T23:08:40.496Z,39.62
2019-04-20T23:11:14.802Z,38.91
2019-04-20T23:13:41.954Z,38.77
2019-04-20T23:16:07.494Z,38.55
2019-04-20T23:18:36.036Z,38.38
2019-04-20T23:21:07.976Z,37.96
2019-04-20T23:23:33.476Z,37.94
2019-04-20T23:26:01.191Z,37.93
2019-04-20T23:28:29.139Z,38.20
2019-04-20T23:31:02.575Z,38.43
2019-04-20T23:33:25.649Z,38.84
2019-04-20T23:35:56.610Z,39.59
2019-04-20T23:38:24.514Z,39.96
2019-04-20T23:40:50.096Z,39.82
2019-04-20T23:43:25.167Z,39.74
2019-04-20T23:45:52.445Z,40.17
2019-04-20T23:48:30.515Z,40.62
2019-04-20T23:51:11.317Z,40.33
2019-04-20T23:53:39.329Z,40.33
2019-04-20T23:55:52.058Z,39.96
2019-04-20T23:58:19.881Z,40.18
